Last 7 Days

Kelseyville

Hourly Data | America/Los_Angeles
as of 5/4/26 10:21 AM PDT
Date & Time Temp (°F) RH (%) Dew Pt (°F) Wet Bulb (°F) Wind Dir (°) Wind Spd (mph) Wind Gust (mph) Leaf Wet (mins) Solar Rad (W/m2) ETo Hr (In) BatVolt (V) Latest Rain (In) Daily Rain (In) Daily Min Temp (°F) Daily Max Temp (°F) Daily Leaf Wet (Hrs) Daily ETo (in)
5/4/26 - 1000 55.8 74 47.6 52.0 WNW | 302 3.3 7.9 0.0 311 0.007 13.1 0.00 0.00 50.7 57.3 0.0 0.013
5/4/26 - 0900 53.6 79 47.2 50.8 WSW | 237 2.3 6.1 0.0 238 0.005 13.1 0.00 0.00 50.7 55.1 0.0 0.007
5/4/26 - 0800 51.6 86 47.6 50.2 SSW | 202 2.5 6.1 0.0 77 0.002 12.4 0.00 0.00 50.7 53.1 0.0 0.002
5/4/26 - 0700 51.5 86 47.4 49.9 W | 266 3.9 8.8 0.0 14 0.000 12.3 0.00 0.00 50.7 53.1 0.0 0.000
5/4/26 - 0600 52.5 83 47.6 50.6 WSW | 245 2.0 8.1 0.0 0 0.000 12.3 0.00 0.00 52.3 53.1 0.0 0.000
5/4/26 - 0500 52.6 83 47.7 50.6 SW | 222 1.0 3.7 0.0 0 0.000 12.3 0.00 0.00 52.5 53.1 0.0 0.000
5/4/26 - 0400 52.7 82 47.4 50.5 SW | 232 1.7 3.7 0.0 0 0.000 12.3 0.00 0.00 52.5 53.1 0.0 0.000
5/4/26 - 0300 53.0 81 47.4 50.6 W | 272 1.5 3.5 0.0 0 0.000 12.3 0.00 0.00 52.5 53.1 0.0 0.000
5/4/26 - 0200 52.7 83 47.8 50.8 WNW | 293 1.9 5.0 0.0 0 0.000 12.3 0.00 0.00 52.5 53.0 0.0 0.000
5/4/26 - 0100 53.0 83 48.0 51.0 NW | 325 3.7 9.0 0.0 0 0.000 12.3 0.00 0.00 47.2 67.4 0.0 0.140
5/4/26 - 0000 54.2 78 47.4 51.2 W | 260 3.0 5.5 0.0 0 0.000 12.3 0.00 0.00 47.2 67.4 0.0 0.139
5/3/26 - 2300 54.4 74 46.4 50.7 SW | 227 2.6 5.9 0.0 0 0.000 12.3 0.00 0.00 47.2 67.4 0.0 0.139
5/3/26 - 2200 54.5 73 46.1 50.6 SW | 228 3.6 7.9 0.0 0 0.000 12.3 0.00 0.00 47.2 67.4 0.0 0.139
5/3/26 - 2100 54.9 74 46.8 51.1 SW | 233 5.0 10.5 0.0 1 0.001 12.4 0.00 0.00 47.2 67.4 0.0 0.138
5/3/26 - 2000 56.6 72 47.8 52.4 SW | 235 5.5 12.1 0.0 12 0.002 12.4 0.00 0.00 47.2 67.4 0.0 0.138
5/3/26 - 1900 58.9 66 47.5 53.1 SSW | 212 7.9 16.0 0.0 80 0.004 12.7 0.00 0.00 47.2 67.4 0.0 0.136
5/3/26 - 1800 62.5 60 48.3 54.8 SSW | 204 8.5 15.8 0.0 222 0.008 13.1 0.00 0.00 47.2 67.4 0.0 0.132
5/3/26 - 1700 65.3 56 49.4 56.4 SSW | 210 8.0 14.7 0.0 590 0.015 13.0 0.00 0.00 47.2 67.4 0.0 0.124
5/3/26 - 1600 66.2 58 51.2 57.8 SW | 228 6.9 14.2 0.0 771 0.019 13.0 0.00 0.00 47.2 67.4 0.0 0.109
5/3/26 - 1500 64.2 62 50.8 56.9 SW | 231 5.5 12.1 0.0 714 0.017 13.0 0.00 0.00 47.2 66.3 0.0 0.091
5/3/26 - 1400 63.8 63 51.0 56.9 SW | 215 6.4 15.6 0.0 778 0.018 13.0 0.00 0.00 47.2 65.6 0.0 0.074
5/3/26 - 1300 62.2 65 50.2 55.9 SW | 228 4.3 10.1 0.0 710 0.017 13.0 0.00 0.00 47.2 63.7 0.0 0.056
5/3/26 - 1200 60.6 67 49.8 55.1 WNW | 290 3.9 9.9 0.0 648 0.015 13.0 0.00 0.00 47.2 62.3 0.0 0.039
5/3/26 - 1100 58.6 71 49.1 54.0 WSW | 254 2.8 7.0 0.0 606 0.013 13.0 0.00 0.00 47.2 60.7 0.0 0.024
5/3/26 - 1000 55.5 79 49.1 52.7 SW | 232 3.1 6.8 0.0 312 0.007 13.0 0.00 0.00 47.2 57.0 0.0 0.011
5/3/26 - 0900 53.1 84 48.3 51.2 SSW | 192 1.2 3.5 0.0 141 0.003 12.7 0.00 0.00 47.2 54.3 0.0 0.004
5/3/26 - 0800 51.3 88 47.8 50.1 SSW | 197 1.4 3.5 0.0 60 0.001 12.4 0.00 0.00 47.2 52.3 0.0 0.001
5/3/26 - 0700 49.3 89 46.3 48.4 S | 187 1.0 3.5 0.0 15 0.000 12.3 0.00 0.00 47.2 50.7 0.0 0.000
5/3/26 - 0600 47.6 91 45.2 46.9 SSE | 168 1.0 2.6 0.0 0 0.000 12.3 0.00 0.00 47.2 50.7 0.0 0.000
5/3/26 - 0500 47.6 91 45.1 46.9 SW | 230 0.1 1.3 0.0 0 0.000 12.3 0.00 0.00 47.4 50.7 0.0 0.000
5/3/26 - 0400 48.6 89 45.5 47.5 S | 191 0.7 3.3 0.0 0 0.000 12.3 0.00 0.00 47.7 50.7 0.0 0.000
5/3/26 - 0300 49.1 90 46.4 48.3 S | 188 0.8 2.6 0.0 0 0.000 12.3 0.00 0.00 48.6 50.7 0.0 0.000
5/3/26 - 0200 50.2 91 47.6 49.5 S | 181 0.7 2.4 0.0 0 0.000 12.3 0.00 0.00 49.9 50.7 0.0 0.000
5/3/26 - 0100 51.5 89 48.5 50.6 S | 186 1.1 3.3 0.0 0 0.000 12.3 0.00 0.00 48.8 78.9 0.0 0.198
5/3/26 - 0000 53.0 87 49.3 51.8 S | 178 1.1 3.1 0.0 0 0.000 12.3 0.00 0.00 48.8 78.9 0.0 0.198
5/2/26 - 2300 54.5 84 49.7 52.7 S | 188 2.4 4.4 0.0 0 0.000 12.3 0.00 0.00 48.8 78.9 0.0 0.198
5/2/26 - 2200 56.2 81 50.6 53.9 S | 181 2.7 6.6 0.0 0 0.000 12.3 0.00 0.00 48.8 78.9 0.0 0.198
5/2/26 - 2100 59.1 73 50.3 54.8 SSW | 198 3.0 7.0 0.0 1 0.000 12.4 0.00 0.00 48.8 78.9 0.0 0.198
5/2/26 - 2000 63.9 57 48.4 55.4 SW | 214 3.0 6.6 0.0 49 0.001 12.4 0.00 0.00 48.8 78.9 0.0 0.198
5/2/26 - 1900 67.2 49 47.6 56.1 SW | 216 5.1 10.1 0.0 202 0.006 13.1 0.00 0.00 48.8 78.9 0.0 0.198
5/2/26 - 1800 69.1 42 44.9 55.3 SSW | 207 8.1 15.6 0.0 374 0.012 13.0 0.00 0.00 48.8 78.9 0.0 0.192
5/2/26 - 1700 73.2 33 42.6 55.4 SW | 236 7.2 13.4 0.0 551 0.017 13.0 0.00 0.00 48.8 78.9 0.0 0.179
5/2/26 - 1600 74.7 29 40.7 55.0 SW | 222 7.5 16.9 0.0 775 0.023 12.9 0.00 0.00 48.8 78.9 0.0 0.162
5/2/26 - 1500 76.9 24 37.4 54.5 SW | 222 8.0 16.9 0.0 854 0.027 12.9 0.00 0.00 48.8 78.9 0.0 0.139
5/2/26 - 1400 77.0 31 43.4 57.0 SE | 127 6.2 14.0 0.0 903 0.027 12.9 0.00 0.00 48.8 78.9 0.0 0.112
5/2/26 - 1300 74.3 36 45.5 57.1 NE | 49 7.8 14.5 0.0 952 0.027 12.9 0.00 0.00 48.8 77.1 0.0 0.086
5/2/26 - 1200 69.3 52 50.7 58.4 NE | 51 4.4 10.5 0.0 865 0.022 13.0 0.00 0.00 48.8 71.4 0.0 0.059
5/2/26 - 1100 65.3 65 53.1 58.7 NE | 38 3.7 9.2 0.0 768 0.018 13.0 0.00 0.00 48.8 67.0 0.0 0.037
5/2/26 - 1000 62.2 70 52.3 57.2 NNE | 27 2.0 6.6 0.0 484 0.011 13.0 0.00 0.00 48.8 64.2 0.0 0.019
5/2/26 - 0900 56.9 77 49.8 53.7 S | 187 1.9 4.6 0.0 335 0.006 13.0 0.00 0.00 48.8 61.1 0.0 0.008
5/2/26 - 0800 51.3 86 47.4 49.9 SSW | 201 0.9 2.6 0.0 116 0.002 12.5 0.00 0.00 48.8 54.3 0.0 0.002
5/2/26 - 0700 50.0 88 46.7 48.9 S | 186 1.3 5.5 0.0 15 0.000 12.3 0.00 0.00 48.8 54.3 0.0 0.000
5/2/26 - 0600 50.1 90 47.4 49.3 S | 182 1.1 3.9 0.0 0 0.000 12.3 0.00 0.00 48.8 54.3 0.0 0.000
5/2/26 - 0500 49.4 93 47.5 49.1 SSW | 205 0.8 2.6 0.0 0 0.000 12.3 0.00 0.00 48.8 54.3 0.0 0.000
5/2/26 - 0400 50.4 92 48.2 49.9 SSW | 213 0.8 2.8 0.0 0 0.000 12.3 0.00 0.00 49.6 54.3 0.0 0.000
5/2/26 - 0300 51.8 90 49.0 51.1 SSW | 192 1.3 4.4 0.0 0 0.000 12.3 0.00 0.00 51.1 54.3 0.0 0.000
5/2/26 - 0200 53.3 90 50.5 52.6 S | 190 0.9 3.1 0.0 0 0.000 12.3 0.00 0.00 51.8 54.3 0.0 0.000
5/2/26 - 0100 55.6 88 51.9 54.4 WSW | 237 1.2 3.9 0.0 0 0.000 12.3 0.00 0.00 44.9 83.1 0.0 0.198
5/2/26 - 0000 59.0 83 53.9 57.0 S | 184 2.4 5.3 0.0 0 0.000 12.3 0.00 0.00 44.9 83.1 0.0 0.198
5/1/26 - 2300 60.5 79 54.0 57.6 S | 173 1.6 3.7 0.0 0 0.000 12.3 0.00 0.00 44.9 83.1 0.0 0.198
5/1/26 - 2200 64.2 72 54.8 59.4 SW | 232 2.6 5.9 0.0 0 0.000 12.3 0.00 0.00 44.9 83.1 0.0 0.198
5/1/26 - 2100 66.9 68 56.1 61.1 SW | 220 1.8 4.6 0.0 1 0.000 12.4 0.00 0.00 44.9 83.1 0.0 0.198
5/1/26 - 2000 72.2 58 56.6 62.9 SSW | 210 4.0 11.6 0.0 46 0.002 12.4 0.00 0.00 44.9 83.1 0.0 0.198
5/1/26 - 1900 77.0 39 50.0 60.0 SSW | 212 5.9 11.0 0.0 151 0.008 13.0 0.00 0.00 44.9 83.1 0.0 0.197
5/1/26 - 1800 81.1 28 44.7 58.3 SW | 227 6.3 12.7 0.0 450 0.016 12.9 0.00 0.00 44.9 83.1 0.0 0.189
5/1/26 - 1700 82.1 28 45.4 58.9 WSW | 248 5.2 10.7 0.0 609 0.019 12.9 0.00 0.00 44.9 83.1 0.0 0.173
5/1/26 - 1600 81.9 29 46.3 59.2 WSW | 239 5.6 11.0 0.0 632 0.021 12.9 0.00 0.00 44.9 83.1 0.0 0.154
5/1/26 - 1500 80.8 31 47.7 59.7 NNW | 340 4.2 10.3 0.0 754 0.023 12.9 0.00 0.00 44.9 82.7 0.0 0.133
5/1/26 - 1400 79.2 39 52.0 61.6 NNE | 21 5.3 11.0 0.0 787 0.024 12.9 0.00 0.00 44.9 80.2 0.0 0.110
5/1/26 - 1300 77.1 41 51.8 61.0 NNE | 19 3.3 7.0 0.0 863 0.024 12.9 0.00 0.00 44.9 79.1 0.0 0.086
5/1/26 - 1200 71.9 48 50.8 59.2 NNE | 22 4.0 7.9 0.0 819 0.022 12.9 0.00 0.00 44.9 74.6 0.0 0.062
5/1/26 - 1100 68.1 54 50.7 58.1 N | 3 3.0 6.8 0.0 712 0.018 12.9 0.00 0.00 44.9 70.3 0.0 0.040
5/1/26 - 1000 65.1 57 49.3 56.4 N | 10 2.2 5.7 0.0 561 0.013 12.9 0.00 0.00 44.9 66.8 0.0 0.023
5/1/26 - 0900 60.1 62 47.0 53.3 WSW | 249 1.1 3.3 0.0 393 0.008 13.0 0.00 0.00 44.9 62.8 0.0 0.010
5/1/26 - 0800 51.4 78 44.9 48.5 NNE | 28 0.6 2.6 0.0 179 0.002 12.4 0.00 0.00 44.9 56.4 0.0 0.002
5/1/26 - 0700 45.8 90 43.0 44.8 S | 174 0.7 2.2 0.0 31 0.000 12.3 0.00 0.00 44.9 53.1 0.0 0.000
5/1/26 - 0600 45.7 89 42.7 44.6 SW | 220 1.1 2.2 0.0 0 0.000 12.2 0.00 0.00 45.2 53.1 0.0 0.000
5/1/26 - 0500 46.7 87 43.1 45.3 SSW | 205 0.8 2.2 0.0 0 0.000 12.3 0.00 0.00 45.9 53.1 0.0 0.000
5/1/26 - 0400 48.2 84 43.7 46.4 S | 186 0.7 3.3 0.0 0 0.000 12.3 0.00 0.00 47.2 53.1 0.0 0.000
5/1/26 - 0300 49.3 81 43.7 47.0 S | 183 0.9 3.5 0.0 0 0.000 12.3 0.00 0.00 48.5 53.1 0.0 0.000
5/1/26 - 0200 51.2 76 43.8 47.8 SW | 222 1.1 2.8 0.0 0 0.000 12.3 0.00 0.00 49.8 53.1 0.0 0.000
5/1/26 - 0100 54.9 68 44.6 49.9 S | 189 1.7 4.8 0.0 0 0.000 12.3 0.00 0.00 40.3 82.6 0.0 0.212
5/1/26 - 0000 56.9 68 46.5 51.8 S | 188 3.0 6.6 0.0 0 0.000 12.3 0.00 0.00 40.3 82.6 0.0 0.212
4/30/26 - 2300 59.4 64 47.2 53.2 S | 179 3.4 6.1 0.0 0 0.000 12.3 0.00 0.00 40.3 82.6 0.0 0.212
4/30/26 - 2200 61.6 60 47.6 54.2 S | 184 2.4 4.4 0.0 0 0.000 12.3 0.00 0.00 40.3 82.6 0.0 0.212
4/30/26 - 2100 67.4 45 45.1 54.9 SW | 217 2.5 7.0 0.0 1 0.000 12.4 0.00 0.00 40.3 82.6 0.0 0.212
4/30/26 - 2000 74.2 35 44.9 56.7 W | 275 4.0 10.5 0.0 64 0.002 12.4 0.00 0.00 40.3 82.6 0.0 0.212
4/30/26 - 1900 78.0 37 49.6 60.0 W | 259 7.1 16.4 0.0 239 0.010 13.0 0.00 0.00 40.3 82.6 0.0 0.209
4/30/26 - 1800 81.4 34 50.6 61.3 W | 264 6.1 12.7 0.0 443 0.015 12.9 0.00 0.00 40.3 82.6 0.0 0.200
4/30/26 - 1700 81.8 28 45.3 58.8 NNW | 334 5.1 11.2 0.0 626 0.020 12.9 0.00 0.00 40.3 82.6 0.0 0.185
4/30/26 - 1600 81.5 24 41.7 57.2 N | 354 4.4 10.5 0.0 795 0.024 12.8 0.00 0.00 40.3 82.4 0.0 0.165
4/30/26 - 1500 80.7 22 38.9 55.9 N | 351 4.2 9.6 0.0 906 0.027 12.9 0.00 0.00 40.3 82.4 0.0 0.141
4/30/26 - 1400 77.8 32 45.0 57.8 N | 9 4.1 8.6 0.0 960 0.027 12.9 0.00 0.00 40.3 80.0 0.0 0.115
4/30/26 - 1300 74.5 39 47.9 58.3 NNE | 12 4.6 9.0 0.0 946 0.026 12.9 0.00 0.00 40.3 77.5 0.0 0.087
4/30/26 - 1200 70.1 42 45.8 56.0 N | 8 4.2 7.9 0.0 877 0.023 13.0 0.00 0.00 40.3 72.3 0.0 0.062
4/30/26 - 1100 65.8 47 44.8 54.1 NNE | 25 2.7 6.6 0.0 756 0.018 13.0 0.00 0.00 40.3 68.6 0.0 0.039
4/30/26 - 1000 61.9 54 45.2 53.0 N | 3 2.1 6.6 0.0 555 0.012 12.9 0.00 0.00 40.3 64.1 0.0 0.021
4/30/26 - 0900 55.6 63 43.1 49.4 SSW | 206 1.4 3.7 0.0 321 0.006 13.0 0.00 0.00 40.3 59.5 0.0 0.008
4/30/26 - 0800 47.3 79 41.1 44.6 SSW | 204 0.6 2.4 0.0 192 0.002 12.4 0.00 0.00 40.3 51.6 0.0 0.002
4/30/26 - 0700 40.8 92 38.8 40.1 SW | 221 0.8 2.2 0.0 37 0.000 12.3 0.00 0.00 40.3 47.5 0.0 0.000
4/30/26 - 0600 41.0 92 38.8 40.2 SSW | 205 0.1 1.8 0.0 0 0.000 12.2 0.00 0.00 40.6 47.5 0.0 0.000
4/30/26 - 0500 41.9 90 39.3 41.0 SSW | 204 0.9 2.4 0.0 0 0.000 12.3 0.00 0.00 41.2 47.5 0.0 0.000
4/30/26 - 0400 43.1 87 39.4 41.6 S | 185 0.7 2.6 0.0 0 0.000 12.3 0.00 0.00 42.2 47.5 0.0 0.000
4/30/26 - 0300 44.6 84 40.2 42.8 S | 186 0.7 2.2 0.0 0 0.000 12.3 0.00 0.00 43.4 47.5 0.0 0.000
4/30/26 - 0200 46.4 83 41.6 44.4 WSW | 244 1.3 3.5 0.0 0 0.000 12.3 0.00 0.00 45.6 47.5 0.0 0.000
4/30/26 - 0100 48.6 79 42.4 45.9 SSW | 200 0.5 2.6 0.0 0 0.000 12.3 0.00 0.00 39.5 78.7 2.4 0.206
4/30/26 - 0000 51.2 73 42.7 47.3 SSW | 195 0.6 2.4 0.0 0 0.000 12.3 0.00 0.00 39.5 78.7 2.4 0.206
4/29/26 - 2300 55.3 61 42.1 48.8 S | 185 2.6 5.7 0.0 0 0.000 12.3 0.00 0.00 39.5 78.7 2.4 0.206
4/29/26 - 2200 58.2 58 43.5 50.7 SSE | 164 2.2 4.4 0.0 0 0.000 12.3 0.00 0.00 39.5 78.7 2.4 0.206
4/29/26 - 2100 62.6 52 44.7 53.0 SSW | 212 2.3 5.7 0.0 1 0.000 12.4 0.00 0.00 39.5 78.7 2.4 0.206
4/29/26 - 2000 69.6 38 43.2 54.6 W | 276 4.4 11.4 0.0 64 0.002 12.4 0.00 0.00 39.5 78.7 2.4 0.206
4/29/26 - 1900 73.8 34 43.8 56.1 WNW | 296 6.1 12.5 0.0 242 0.009 13.0 0.00 0.00 39.5 78.7 2.4 0.204
4/29/26 - 1800 76.1 34 45.9 57.7 WNW | 301 7.1 14.9 0.0 446 0.015 13.0 0.00 0.00 39.5 78.7 2.4 0.195
4/29/26 - 1700 77.6 33 46.0 58.2 WNW | 286 6.6 14.0 0.0 638 0.020 12.9 0.00 0.00 39.5 78.7 2.4 0.180
4/29/26 - 1600 77.5 28 42.2 56.4 WSW | 257 4.6 13.4 0.0 800 0.023 12.9 0.00 0.00 39.5 78.7 2.4 0.161
4/29/26 - 1500 75.4 32 43.2 56.3 NNW | 339 4.3 11.6 0.0 906 0.025 12.9 0.00 0.00 39.5 77.7 2.4 0.138
4/29/26 - 1400 73.2 35 44.1 56.1 N | 9 5.2 9.4 0.0 968 0.026 12.9 0.00 0.00 39.5 74.6 2.4 0.112
4/29/26 - 1300 70.3 43 46.9 56.6 NNE | 12 4.7 9.2 0.0 963 0.025 13.0 0.00 0.00 39.5 72.3 2.4 0.086
4/29/26 - 1200 66.6 50 47.6 55.8 N | 359 3.5 8.3 0.0 890 0.022 13.0 0.00 0.00 39.5 68.1 2.4 0.061
4/29/26 - 1100 63.0 59 48.4 55.1 N | 11 3.8 7.7 0.0 761 0.017 13.0 0.00 0.00 39.5 64.3 2.4 0.040
4/29/26 - 1000 60.4 63 47.9 53.9 NE | 46 1.5 8.3 0.0 592 0.013 12.9 0.00 0.00 39.5 63.1 2.4 0.022
4/29/26 - 0900 54.5 74 46.3 50.6 SSW | 200 1.2 3.9 0.0 390 0.007 13.1 0.00 0.00 39.5 57.3 2.4 0.009
4/29/26 - 0800 46.0 89 42.9 44.9 SSW | 194 2.2 4.6 11.5 199 0.002 12.4 0.00 0.00 39.5 50.5 2.4 0.002
4/29/26 - 0700 39.9 96 38.8 39.6 SSW | 204 0.8 3.9 60.0 35 0.000 12.3 0.00 0.00 39.5 46.5 2.2 0.000
4/29/26 - 0600 40.3 95 39.0 39.9 SSW | 212 0.5 2.0 60.0 0 0.000 12.2 0.00 0.00 39.9 46.5 1.2 0.000
4/29/26 - 0500 41.3 93 39.5 40.7 SSW | 198 0.5 2.0 15.0 0 0.000 12.3 0.00 0.00 40.7 46.5 0.2 0.000
4/29/26 - 0400 43.0 92 40.8 42.2 S | 186 1.1 3.5 0.0 0 0.000 12.3 0.00 0.00 42.0 46.5 0.0 0.000
4/29/26 - 0300 44.1 90 41.4 43.1 WSW | 256 0.9 3.1 0.0 0 0.000 12.3 0.00 0.00 43.4 46.5 0.0 0.000
4/29/26 - 0200 45.8 88 42.4 44.5 S | 187 0.7 2.8 0.0 0 0.000 12.3 0.00 0.00 45.0 46.5 0.0 0.000
4/29/26 - 0100 47.6 85 43.3 45.9 S | 189 0.9 4.4 0.0 0 0.000 12.3 0.00 0.00 38.5 72.1 5.5 0.182
4/29/26 - 0000 49.2 83 44.2 47.1 S | 174 0.8 2.6 0.0 0 0.000 12.3 0.00 0.00 38.5 72.1 5.5 0.182
4/28/26 - 2300 51.9 75 44.3 48.5 S | 183 0.6 2.4 0.0 0 0.000 12.3 0.00 0.00 38.5 72.1 5.5 0.182
4/28/26 - 2200 55.2 68 45.0 50.3 SSE | 168 2.3 4.4 0.0 0 0.000 12.3 0.00 0.00 38.5 72.1 5.5 0.182
4/28/26 - 2100 60.2 57 45.0 52.2 WSW | 247 3.3 7.9 0.0 1 0.000 12.3 0.00 0.00 38.5 72.1 5.5 0.182
4/28/26 - 2000 64.6 50 45.6 54.1 W | 277 5.7 14.0 0.0 60 0.002 12.4 0.00 0.00 38.5 72.1 5.5 0.182
4/28/26 - 1900 68.1 48 47.4 56.2 W | 276 7.3 16.2 0.0 247 0.008 13.0 0.00 0.00 38.5 72.1 5.5 0.180
4/28/26 - 1800 70.3 41 45.3 55.9 W | 266 5.4 13.4 0.0 406 0.012 13.0 0.00 0.00 38.5 72.1 5.5 0.172
4/28/26 - 1700 70.5 36 42.3 54.5 WNW | 288 3.3 10.5 0.0 550 0.015 13.0 0.00 0.00 38.5 72.1 5.5 0.160
4/28/26 - 1600 69.8 33 39.2 53.0 NNE | 14 5.3 11.0 0.0 646 0.018 13.0 0.00 0.00 38.5 71.0 5.5 0.145
4/28/26 - 1500 69.0 37 41.4 53.6 N | 5 5.9 12.5 0.0 918 0.024 13.0 0.00 0.00 38.5 70.2 5.5 0.127
4/28/26 - 1400 67.7 40 42.8 53.8 NNW | 345 5.1 12.1 0.0 973 0.024 13.0 0.00 0.00 38.5 69.5 5.5 0.103
4/28/26 - 1300 64.9 50 45.8 54.4 N | 4 4.5 10.1 0.0 953 0.023 13.0 0.00 0.00 38.5 66.8 5.5 0.079
4/28/26 - 1200 62.0 58 47.2 54.1 N | 354 3.4 9.2 0.0 876 0.020 13.0 0.00 0.00 38.5 63.7 5.5 0.056
4/28/26 - 1100 59.1 64 47.1 53.0 NNW | 348 3.2 8.8 0.0 748 0.016 13.0 0.00 0.00 38.5 60.2 5.5 0.036
4/28/26 - 1000 55.7 70 46.0 51.0 W | 281 1.3 5.3 0.0 578 0.012 13.0 0.00 0.00 38.5 58.0 5.5 0.020
4/28/26 - 0900 50.5 80 44.4 47.8 N | 7 1.1 3.7 0.0 380 0.006 13.1 0.00 0.00 38.5 53.6 5.5 0.008
4/28/26 - 0800 43.7 93 41.7 43.0 SSW | 198 1.4 4.2 41.0 192 0.002 12.4 0.00 0.00 38.5 47.3 5.5 0.002
4/28/26 - 0700 39.1 97 38.3 38.9 SW | 214 0.6 2.8 60.0 31 0.000 12.3 0.00 0.00 38.5 45.6 4.8 0.000
4/28/26 - 0600 40.1 95 38.9 39.8 S | 188 0.5 3.7 60.0 0 0.000 12.2 0.00 0.00 39.0 45.6 3.8 0.000
4/28/26 - 0500 40.9 95 39.6 40.5 S | 185 1.9 5.5 60.0 0 0.000 12.3 0.00 0.00 40.0 45.6 2.8 0.000
4/28/26 - 0400 41.6 94 40.1 41.2 SSW | 202 0.7 3.3 60.0 0 0.000 12.3 0.00 0.00 40.7 45.6 1.8 0.000
4/28/26 - 0300 42.7 93 41.0 42.2 SSW | 194 1.1 3.1 48.3 0 0.000 12.3 0.00 0.00 42.5 45.6 0.8 0.000
4/28/26 - 0200 44.0 91 41.5 43.1 SW | 219 0.6 3.3 0.0 0 0.000 12.3 0.00 0.00 42.6 45.6 0.0 0.000
4/28/26 - 0100 46.2 89 43.1 45.1 S | 190 1.8 5.0 0.0 0 0.000 12.3 0.00 0.00 45.5 66.3 0.2 0.168
4/28/26 - 0000 48.2 85 43.9 46.5 SSE | 167 2.4 4.4 0.0 0 0.000 12.3 0.00 0.00 46.7 66.3 0.2 0.167
4/27/26 - 2300 50.0 82 45.0 47.9 S | 174 2.2 4.4 0.0 0 0.000 12.3 0.00 0.00 46.7 66.3 0.2 0.167
4/27/26 - 2200 52.6 77 45.7 49.5 SSW | 192 1.4 3.5 0.0 0 0.000 12.3 0.00 0.00 46.7 66.3 0.2 0.167
4/27/26 - 2100 55.9 66 44.8 50.4 W | 261 3.7 9.0 0.0 1 0.001 12.4 0.00 0.00 46.7 66.3 0.2 0.167
4/27/26 - 2000 58.4 60 44.8 51.5 W | 280 6.7 13.4 0.0 16 0.003 12.4 0.00 0.00 46.7 66.3 0.2 0.166
4/27/26 - 1900 60.2 59 45.9 52.8 WNW | 292 6.2 12.7 0.0 92 0.004 12.8 0.00 0.00 46.7 66.3 0.2 0.163
4/27/26 - 1800 61.7 53 44.0 52.4 NNW | 327 6.6 16.4 0.0 139 0.006 13.1 0.00 0.00 46.7 66.3 0.2 0.159
4/27/26 - 1700 64.4 39 39.0 51.0 NNE | 12 5.1 12.1 0.0 542 0.014 13.0 0.00 0.00 46.7 66.3 0.2 0.152
4/27/26 - 1600 64.8 41 40.3 51.7 NNE | 23 6.0 14.2 0.0 813 0.020 13.0 0.00 0.00 46.7 66.3 0.2 0.138
4/27/26 - 1500 63.4 41 39.1 50.7 SSE | 151 3.3 10.5 0.0 912 0.022 13.0 0.00 0.00 46.7 64.9 0.2 0.118
4/27/26 - 1400 62.1 43 39.6 50.4 ENE | 64 6.7 14.9 0.0 966 0.022 13.0 0.00 0.00 46.7 63.2 0.2 0.097
4/27/26 - 1300 60.2 48 40.6 50.2 E | 85 7.4 17.8 0.0 961 0.021 13.1 0.00 0.00 46.7 61.6 0.2 0.074
4/27/26 - 1200 58.8 52 41.5 50.0 E | 93 8.3 18.2 0.0 887 0.019 13.1 0.00 0.00 46.7 60.2 0.2 0.053
4/27/26 - 1100 57.2 57 42.2 49.7 E | 80 7.2 17.8 0.0 755 0.016 13.1 0.00 0.00 46.7 58.5 0.2 0.034
Max 82.1 97 56.6 62.9 - 8.5 18.2 60.0 973 0.027 13.1 0.00 0.00 52.5 83.1 5.5 0.212
Avg 59.0 66 45.6 51.7 - 3.2 7.5 2.8 296 0.008 12.6 0.00 - - - - -
Min 39.1 22 37.4 38.9 - 0.1 1.3 0.0 0 0.000 12.2 0.00 0.00 38.5 45.6 0.0 0.000
Total - - - - - - - - - 1.301 - 0.00 - - - - -